createdAt,value
2022-08-17T00:01:37.880Z,24.10
2022-08-17T00:04:19.579Z,23.83
2022-08-17T00:06:47.553Z,23.75
2022-08-17T00:09:18.452Z,23.67
2022-08-17T00:12:40.469Z,23.68
2022-08-17T00:14:36.287Z,23.89
2022-08-17T00:17:04.869Z,23.73
2022-08-17T00:19:33.111Z,23.99
2022-08-17T00:22:32.564Z,23.93
2022-08-17T00:24:50.481Z,23.69
2022-08-17T00:27:18.554Z,23.75
2022-08-17T00:29:46.164Z,23.53
2022-08-17T00:33:12.632Z,23.72
2022-08-17T00:35:04.109Z,23.68
2022-08-17T00:37:32.026Z,23.44
2022-08-17T00:39:59.550Z,23.41
2022-08-17T00:42:30.951Z,23.50
2022-08-17T00:44:58.909Z,23.80
2022-08-17T00:47:26.318Z,24.01
2022-08-17T00:49:54.128Z,24.08
2022-08-17T00:52:23.205Z,23.72
2022-08-17T00:54:52.467Z,23.58
2022-08-17T00:57:40.246Z,23.57
2022-08-17T01:00:12.702Z,23.55
2022-08-17T01:02:43.268Z,23.72
2022-08-17T01:05:13.040Z,23.93
2022-08-17T01:07:40.927Z,23.72
2022-08-17T01:10:08.877Z,23.70
2022-08-17T01:12:56.946Z,23.58
2022-08-17T01:15:24.467Z,23.45
2022-08-17T01:17:51.817Z,23.30
2022-08-17T01:20:19.369Z,23.52
2022-08-17T01:22:46.756Z,23.49
2022-08-17T01:25:14.205Z,23.61
2022-08-17T01:27:41.836Z,23.58
2022-08-17T01:30:56.716Z,23.48
2022-08-17T01:32:58.209Z,23.27
2022-08-17T01:35:25.685Z,23.25
2022-08-17T01:37:53.151Z,23.25
2022-08-17T01:40:26.702Z,23.44
2022-08-17T01:42:57.733Z,23.48
2022-08-17T01:45:26.760Z,23.25
2022-08-17T01:47:54.950Z,23.18
2022-08-17T01:50:29.645Z,23.34
2022-08-17T01:52:58.470Z,23.35
2022-08-17T01:55:30.856Z,23.27
2022-08-17T01:57:58.275Z,23.47
2022-08-17T02:00:27.036Z,23.44
2022-08-17T02:03:14.551Z,23.21
2022-08-17T02:05:41.970Z,23.35
2022-08-17T02:08:09.466Z,23.24
2022-08-17T02:10:48.074Z,23.18
2022-08-17T02:13:16.747Z,23.15
2022-08-17T02:15:44.250Z,23.17
2022-08-17T02:18:11.901Z,23.22
2022-08-17T02:20:41.591Z,23.32
2022-08-17T02:23:11.028Z,23.14
2022-08-17T02:25:38.792Z,23.16
2022-08-17T02:28:06.303Z,22.90
2022-08-17T02:30:59.722Z,22.63
2022-08-17T02:33:21.764Z,22.71
2022-08-17T02:35:49.474Z,22.83
2022-08-17T02:38:17.583Z,22.96
2022-08-17T02:40:45.132Z,23.04
2022-08-17T02:43:13.882Z,23.31
2022-08-17T02:45:41.215Z,23.10
2022-08-17T02:48:08.658Z,23.06
2022-08-17T02:50:36.554Z,22.81
2022-08-17T02:53:04.794Z,22.82
2022-08-17T02:55:36.319Z,22.85
2022-08-17T02:58:04.299Z,22.76
2022-08-17T03:00:34.274Z,22.75
2022-08-17T03:03:01.873Z,23.00
2022-08-17T03:05:29.928Z,22.91
2022-08-17T03:07:58.146Z,22.74
2022-08-17T03:10:25.786Z,22.73
2022-08-17T03:12:53.585Z,22.79
2022-08-17T03:15:22.112Z,22.95
2022-08-17T03:17:49.658Z,22.93
2022-08-17T03:20:17.390Z,23.05
2022-08-17T03:22:48.057Z,22.79
2022-08-17T03:25:25.340Z,22.92
2022-08-17T03:27:53.021Z,23.08
2022-08-17T03:30:22.546Z,23.03
2022-08-17T03:32:50.808Z,23.08
2022-08-17T03:35:18.880Z,23.12
2022-08-17T03:37:46.466Z,23.11
2022-08-17T03:40:14.047Z,23.00
2022-08-17T03:42:41.501Z,22.91
2022-08-17T03:45:10.574Z,22.93
2022-08-17T03:47:57.291Z,22.88
2022-08-17T03:50:43.577Z,23.05
2022-08-17T03:53:30.811Z,23.05
2022-08-17T03:56:20.094Z,23.28
2022-08-17T03:58:47.555Z,23.55
2022-08-17T04:01:15.012Z,24.66
2022-08-17T04:03:42.390Z,26.27
2022-08-17T04:06:09.819Z,27.02
2022-08-17T04:08:37.359Z,27.18
2022-08-17T04:11:05.187Z,27.21
2022-08-17T04:13:33.261Z,27.67
2022-08-17T04:16:00.758Z,27.88
2022-08-17T04:18:28.114Z,28.20
2022-08-17T04:20:55.587Z,28.33
2022-08-17T04:23:28.441Z,28.76
2022-08-17T04:25:55.935Z,28.40
2022-08-17T04:28:23.467Z,28.42
2022-08-17T04:30:51.105Z,28.37
2022-08-17T04:33:20.147Z,28.31
2022-08-17T04:35:48.416Z,28.06
2022-08-17T04:38:17.181Z,28.08
2022-08-17T04:41:03.244Z,28.35
2022-08-17T04:43:31.290Z,28.25
2022-08-17T04:45:59.767Z,28.37
2022-08-17T04:48:35.615Z,28.24
2022-08-17T04:51:14.381Z,28.04
2022-08-17T04:53:42.390Z,28.18
2022-08-17T04:56:15.908Z,28.73
2022-08-17T04:58:44.513Z,27.70
2022-08-17T05:01:12.009Z,27.10
2022-08-17T05:03:39.541Z,26.58
2022-08-17T05:06:07.050Z,26.13
2022-08-17T05:08:34.559Z,26.20
2022-08-17T05:11:02.069Z,25.65
2022-08-17T17:37:40.222Z,31.07
2022-08-17T17:40:12.664Z,31.04
2022-08-17T17:42:40.728Z,30.89
2022-08-17T17:45:20.011Z,30.72
2022-08-17T17:47:47.579Z,29.98
2022-08-17T17:50:16.140Z,29.70
2022-08-17T17:53:03.492Z,29.58
2022-08-17T17:55:38.456Z,29.80
2022-08-17T17:58:24.680Z,29.62
2022-08-17T18:00:52.415Z,29.52
2022-08-17T18:03:29.187Z,29.38
2022-08-17T18:06:00.571Z,29.38
2022-08-17T18:08:34.735Z,29.29
2022-08-17T18:11:08.930Z,29.34
2022-08-17T18:13:43.820Z,29.30
2022-08-17T18:16:12.849Z,29.18
2022-08-17T18:18:40.922Z,29.27
2022-08-17T18:21:15.756Z,29.17
2022-08-17T18:23:47.404Z,29.25
2022-08-17T18:26:22.433Z,29.47
2022-08-17T18:28:49.997Z,29.77
2022-08-17T18:31:21.121Z,29.61
2022-08-17T18:33:49.581Z,29.14
2022-08-17T18:36:28.044Z,29.53
2022-08-17T18:39:14.342Z,29.18
2022-08-17T18:41:42.655Z,29.24
2022-08-17T18:44:29.840Z,29.13
2022-08-17T18:47:06.569Z,29.05
2022-08-17T18:49:34.244Z,28.90
2022-08-17T18:52:07.509Z,28.76
2022-08-17T18:54:36.383Z,27.37
2022-08-17T18:57:05.101Z,27.20
2022-08-17T18:59:42.420Z,26.56
2022-08-17T19:02:27.303Z,26.40
2022-08-17T19:05:02.637Z,26.42
2022-08-17T19:07:40.731Z,26.37
2022-08-17T19:10:23.855Z,26.24
2022-08-17T19:13:12.361Z,26.67
2022-08-17T19:16:12.070Z,27.34
2022-08-17T19:18:47.650Z,27.97
2022-08-17T19:21:17.068Z,28.56
2022-08-17T19:23:53.698Z,29.13
2022-08-17T19:26:54.600Z,28.94
2022-08-17T19:29:12.964Z,29.13
2022-08-17T19:31:41.667Z,28.80
2022-08-17T19:34:09.295Z,28.87
2022-08-17T19:37:01.105Z,28.88
2022-08-17T19:39:38.619Z,29.13
2022-08-17T19:42:11.906Z,29.44
2022-08-17T19:44:58.003Z,29.36
2022-08-17T19:47:55.370Z,29.42
2022-08-17T19:50:39.198Z,29.36
2022-08-17T19:53:36.689Z,29.18
2022-08-17T19:56:22.376Z,29.26
2022-08-17T19:58:57.176Z,28.42
2022-08-17T20:01:48.122Z,27.40
2022-08-17T20:04:31.807Z,27.02
2022-08-17T20:07:02.298Z,26.64
2022-08-17T20:09:33.700Z,26.28
2022-08-17T20:12:11.611Z,26.44
2022-08-17T20:14:53.888Z,27.35
2022-08-17T20:17:28.370Z,27.31
2022-08-17T20:20:19.701Z,26.50
2022-08-17T20:22:53.176Z,25.80
2022-08-17T20:25:30.297Z,25.66
2022-08-17T20:28:05.751Z,25.50
2022-08-17T20:30:37.697Z,25.50
2022-08-17T20:33:06.085Z,25.51
2022-08-17T20:35:34.320Z,25.35
2022-08-17T20:38:10.616Z,25.44
2022-08-17T20:40:39.458Z,25.24
2022-08-17T20:43:33.287Z,25.41
2022-08-17T20:46:06.578Z,25.39
2022-08-17T20:48:38.451Z,24.96
2022-08-17T20:51:15.857Z,24.79
2022-08-17T20:53:49.530Z,24.80
2022-08-17T20:56:36.361Z,25.00
2022-08-17T20:59:03.880Z,25.14
2022-08-17T21:01:36.077Z,25.07
2022-08-17T21:04:05.864Z,25.15
2022-08-17T21:06:33.324Z,25.01
2022-08-17T21:09:13.153Z,24.90
2022-08-17T21:12:03.351Z,25.01
2022-08-17T21:14:49.694Z,25.03
2022-08-17T21:17:35.920Z,24.93
2022-08-17T21:20:15.786Z,25.15
2022-08-17T21:22:46.129Z,25.20
2022-08-17T21:25:22.708Z,25.21
2022-08-17T21:27:56.429Z,25.04
2022-08-17T21:30:42.601Z,25.01
2022-08-17T21:33:12.252Z,24.90
2022-08-17T21:35:47.476Z,24.92
2022-08-17T21:38:15.315Z,24.64
2022-08-17T21:40:47.067Z,24.59
2022-08-17T21:43:14.638Z,24.70
2022-08-17T21:45:43.100Z,24.78
2022-08-17T21:48:19.735Z,24.71
2022-08-17T21:51:05.894Z,24.73
2022-08-17T21:53:36.713Z,24.70
2022-08-17T21:56:04.624Z,24.72
2022-08-17T21:58:32.929Z,24.55
2022-08-17T22:01:19.092Z,24.57
2022-08-17T22:04:00.242Z,24.68
2022-08-17T22:06:35.219Z,24.80
2022-08-17T22:09:07.413Z,24.71
2022-08-17T22:11:54.268Z,24.80
2022-08-17T22:14:52.629Z,24.65
2022-08-17T22:17:27.064Z,24.39
2022-08-17T22:20:01.579Z,24.54
2022-08-17T22:22:30.996Z,24.40
2022-08-17T22:25:06.749Z,24.53
2022-08-17T22:27:45.874Z,24.46
2022-08-17T22:30:25.077Z,24.42
2022-08-17T22:32:52.782Z,24.39
2022-08-17T22:35:29.512Z,24.38
2022-08-17T22:37:57.079Z,24.48
2022-08-17T22:40:31.203Z,24.18
2022-08-17T22:42:59.009Z,24.36
2022-08-17T22:45:26.604Z,24.29
2022-08-17T22:47:55.760Z,24.12
2022-08-17T22:50:23.953Z,24.18
2022-08-17T22:53:17.646Z,23.93
2022-08-17T22:56:21.876Z,24.06
2022-08-17T22:59:10.984Z,24.19
2022-08-17T23:01:39.206Z,24.47
2022-08-17T23:04:07.443Z,24.30
2022-08-17T23:06:35.841Z,24.15
2022-08-17T23:09:04.080Z,24.20
2022-08-17T23:11:49.915Z,24.12
2022-08-17T23:14:19.291Z,24.04
2022-08-17T23:16:52.924Z,24.19
2022-08-17T23:19:20.796Z,24.41
2022-08-17T23:21:49.342Z,24.50
2022-08-17T23:24:21.271Z,24.26
2022-08-17T23:26:48.956Z,24.12
2022-08-17T23:29:16.314Z,24.02
2022-08-17T23:31:43.691Z,23.97
2022-08-17T23:34:12.072Z,23.89
2022-08-17T23:36:39.488Z,23.83
2022-08-17T23:39:06.978Z,23.87
2022-08-17T23:41:35.755Z,24.13
2022-08-17T23:46:49.524Z,23.97
2022-08-17T23:49:17.178Z,23.93
2022-08-17T23:51:45.536Z,23.96
2022-08-17T23:54:33.776Z,23.77
2022-08-17T23:57:04.960Z,23.79
2022-08-17T23:59:34.005Z,23.75
